Time;durP1;ratioP1;P1;durP2;ratioP2;P2;SDS_P1;SDS_P2;PMS_P1;PMS_P2;Temp;Humidity;BMP_temperature;BMP_pressure;BME280_temperature;BME280_humidity;BME280_pressure;Samples;Min_cycle;Max_cycle;Signal;HPM_P1;HPM_P2
2022/06/23 00:02:03;;;;;;;26.07;7.90;;;24.90;70.10;;;;;;5076924;28;20208;-79
2022/06/23 00:04:42;;;;;;;24.80;7.70;;;24.90;69.90;;;;;;5076840;28;20236;-79
2022/06/23 00:07:15;;;;;;;28.33;8.13;;;24.90;69.90;;;;;;5070865;28;20202;-79
2022/06/23 00:09:45;;;;;;;23.67;8.50;;;24.90;69.90;;;;;;5065833;28;20213;-78
2022/06/23 00:12:30;;;;;;;32.07;8.97;;;24.90;69.90;;;;;;5057214;28;20299;-79
2022/06/23 00:15:06;;;;;;;32.97;9.33;;;24.80;70.70;;;;;;5068217;28;20263;-79
2022/06/23 00:17:37;;;;;;;28.30;8.43;;;24.80;70.00;;;;;;5057649;28;20213;-79
2022/06/23 00:20:24;;;;;;;29.53;8.67;;;24.80;70.20;;;;;;5056267;28;20225;-79
2022/06/23 00:23:03;;;;;;;27.20;8.40;;;24.80;70.40;;;;;;5067601;28;20194;-78
2022/06/23 00:25:39;;;;;;;32.00;9.77;;;24.80;70.70;;;;;;5067350;28;20201;-78
2022/06/23 00:28:15;;;;;;;26.73;8.77;;;24.80;71.00;;;;;;5075381;28;20541;-79
2022/06/23 00:30:43;;;;;;;23.67;10.30;;;24.70;71.20;;;;;;5058078;28;20882;-79
2022/06/23 00:33:24;;;;;;;26.90;10.60;;;24.60;71.40;;;;;;5058896;28;20213;-78
2022/06/23 00:35:52;;;;;;;24.50;10.67;;;24.60;71.90;;;;;;5069738;28;20641;-78
2022/06/23 00:38:28;;;;;;;24.50;10.30;;;24.60;72.30;;;;;;5063275;28;20628;-78
2022/06/23 00:40:56;;;;;;;32.20;12.43;;;24.50;72.70;;;;;;5051564;28;20667;-78
2022/06/23 00:43:25;;;;;;;23.63;12.80;;;24.50;73.10;;;;;;5060881;28;20259;-79
2022/06/23 00:46:20;;;;;;;25.17;13.13;;;24.50;73.50;;;;;;5068907;28;20582;-79
2022/06/23 00:48:53;;;;;;;28.07;15.37;;;24.40;74.10;;;;;;5070032;28;20206;-79
2022/06/23 00:51:32;;;;;;;35.73;16.47;;;24.40;74.40;;;;;;5058848;28;20221;-78
2022/06/23 00:54:32;;;;;;;31.53;18.83;;;24.30;74.90;;;;;;5055929;28;20646;-78
2022/06/23 00:57:20;;;;;;;26.93;18.63;;;24.30;75.30;;;;;;5056465;28;20210;-79
2022/06/23 01:00:05;;;;;;;33.17;21.33;;;24.30;75.70;;;;;;5058457;28;20310;-79
2022/06/23 01:02:52;;;;;;;27.67;21.97;;;24.30;76.20;;;;;;5056188;28;20654;-79
2022/06/23 01:05:45;;;;;;;32.50;22.23;;;24.30;76.70;;;;;;5058308;28;20299;-79
2022/06/23 01:08:35;;;;;;;35.07;22.43;;;24.30;77.00;;;;;;5058028;28;20197;-79
2022/06/23 01:11:13;;;;;;;31.13;23.20;;;24.30;77.10;;;;;;5071599;28;20227;-79
2022/06/23 01:13:49;;;;;;;35.80;24.13;;;24.30;77.40;;;;;;5064204;28;20292;-78
2022/06/23 01:16:40;;;;;;;41.13;23.40;;;24.30;77.60;;;;;;5057850;28;20197;-79
2022/06/23 01:19:29;;;;;;;33.70;22.17;;;24.30;77.90;;;;;;5052446;28;20212;-79
2022/06/23 01:22:00;;;;;;;34.50;22.07;;;24.30;78.00;;;;;;5040205;28;20216;-79
2022/06/23 01:24:50;;;;;;;34.93;24.03;;;24.20;78.20;;;;;;5067125;28;20549;-79
2022/06/23 01:27:56;;;;;;;36.83;22.53;;;24.30;78.50;;;;;;5072397;28;20201;-79
2022/06/23 01:30:29;;;;;;;37.33;23.00;;;24.30;78.60;;;;;;5024997;28;20214;-79
2022/06/23 01:33:17;;;;;;;33.83;21.87;;;24.30;78.60;;;;;;5069405;28;20214;-80
2022/06/23 01:35:56;;;;;;;35.60;21.33;;;24.30;78.60;;;;;;5064696;28;20254;-80
2022/06/23 01:38:58;;;;;;;30.90;22.50;;;24.30;78.50;;;;;;5061246;28;20634;-79
2022/06/23 01:41:50;;;;;;;38.67;23.13;;;24.30;78.40;;;;;;5023345;28;20248;-79
2022/06/23 01:44:42;;;;;;;34.13;22.10;;;24.30;78.40;;;;;;5069011;28;20248;-80
2022/06/23 01:47:27;;;;;;;29.13;23.03;;;24.40;78.60;;;;;;5073808;28;20248;-80
2022/06/23 01:50:20;;;;;;;33.97;23.43;;;24.40;78.60;;;;;;5074835;28;20206;-79
2022/06/23 01:52:48;;;;;;;28.03;23.97;;;24.40;78.70;;;;;;5072529;28;20256;-79
2022/06/23 01:55:19;;;;;;;37.57;25.80;;;24.40;78.80;;;;;;5041796;28;20220;-79
2022/06/23 01:58:04;;;;;;;30.13;25.57;;;24.40;78.90;;;;;;5059962;28;20190;-79
2022/06/23 02:00:34;;;;;;;31.90;24.47;;;24.40;79.00;;;;;;5071639;28;20201;-79
2022/06/23 02:03:16;;;;;;;36.70;27.03;;;24.50;78.90;;;;;;5063881;28;20284;-79
2022/06/23 02:05:52;;;;;;;33.30;26.17;;;24.50;78.90;;;;;;5056441;28;20206;-79
2022/06/23 02:08:35;;;;;;;29.47;24.87;;;24.50;78.90;;;;;;5073378;28;20197;-79
2022/06/23 02:11:29;;;;;;;33.33;26.70;;;24.50;79.00;;;;;;5051547;28;20642;-79
2022/06/23 02:14:05;;;;;;;34.37;25.23;;;24.50;79.00;;;;;;5048117;28;20214;-79
2022/06/23 02:16:42;;;;;;;31.63;25.90;;;24.50;78.90;;;;;;5057762;28;20197;-79
2022/06/23 02:19:28;;;;;;;29.63;23.73;;;24.50;78.90;;;;;;5038365;28;20272;-78
2022/06/23 02:22:08;;;;;;;35.30;25.93;;;24.50;78.90;;;;;;5052599;28;20515;-79
2022/06/23 02:24:39;;;;;;;30.57;25.17;;;24.50;78.90;;;;;;5061768;28;20263;-79
2022/06/23 02:27:15;;;;;;;34.60;27.60;;;24.50;78.80;;;;;;5066574;28;20201;-80
2022/06/23 02:30:04;;;;;;;35.53;26.73;;;24.50;78.90;;;;;;5058156;28;20201;-79
2022/06/23 02:33:16;;;;;;;35.83;25.57;;;24.40;78.90;;;;;;5064816;28;20353;-79
2022/06/23 02:35:53;;;;;;;37.10;27.83;;;24.40;79.00;;;;;;5050849;28;20601;-79
2022/06/23 02:38:30;;;;;;;37.13;27.33;;;24.30;79.00;;;;;;5055433;28;20198;-79
2022/06/23 02:41:24;;;;;;;33.23;29.33;;;24.30;79.20;;;;;;5066455;28;20210;-79
2022/06/23 02:44:17;;;;;;;40.00;28.03;;;24.30;79.20;;;;;;5054829;28;20209;-79
2022/06/23 02:47:03;;;;;;;36.60;30.07;;;24.30;79.40;;;;;;5057992;28;20282;-80
2022/06/23 02:49:57;;;;;;;38.27;29.10;;;24.20;79.40;;;;;;5060210;28;20213;-80
2022/06/23 02:52:55;;;;;;;33.90;29.00;;;24.20;79.60;;;;;;5076138;28;20241;-79
2022/06/23 02:55:40;;;;;;;36.80;30.83;;;24.10;79.60;;;;;;5077999;28;20194;-79
2022/06/23 02:58:18;;;;;;;34.70;29.23;;;24.20;79.70;;;;;;5058370;28;20203;-79
2022/06/23 03:01:09;;;;;;;39.93;29.73;;;24.10;79.60;;;;;;5074820;28;20194;-79
2022/06/23 03:03:42;;;;;;;38.47;28.60;;;24.10;79.70;;;;;;5058585;28;20233;-79
2022/06/23 03:06:15;;;;;;;39.37;30.00;;;24.10;79.80;;;;;;5072713;28;20518;-79
2022/06/23 03:09:05;;;;;;;35.27;28.70;;;24.00;80.50;;;;;;5054672;28;20641;-79
2022/06/23 03:11:53;;;;;;;42.13;27.57;;;24.00;80.00;;;;;;5076954;28;20214;-79
2022/06/23 03:14:42;;;;;;;37.20;26.43;;;23.90;80.10;;;;;;5057096;28;20198;-79
2022/06/23 03:17:15;;;;;;;38.27;27.50;;;23.80;80.40;;;;;;5052424;28;20645;-79
2022/06/23 03:19:54;;;;;;;34.50;28.20;;;23.80;80.60;;;;;;5073167;28;20198;-79
2022/06/23 03:22:34;;;;;;;34.70;26.50;;;23.70;80.70;;;;;;5077682;28;20202;-79
2022/06/23 03:25:22;;;;;;;45.93;27.50;;;23.70;80.80;;;;;;5039660;28;20201;-79
2022/06/23 03:27:49;;;;;;;34.97;25.60;;;23.70;80.80;;;;;;5054314;28;20221;-79
2022/06/23 03:30:20;;;;;;;38.23;26.43;;;23.70;80.70;;;;;;5052959;28;20198;-79
2022/06/23 03:33:00;;;;;;;37.20;25.53;;;23.60;80.80;;;;;;5074300;28;20220;-79
2022/06/23 03:35:41;;;;;;;41.10;25.60;;;23.60;80.90;;;;;;5071847;28;20197;-79
2022/06/23 03:38:21;;;;;;;27.53;24.43;;;23.60;81.00;;;;;;5060017;28;20272;-79
2022/06/23 03:43:50;;;;;;;35.03;27.37;;;23.60;80.50;;;;;;5067072;28;20211;-79
2022/06/23 03:46:27;;;;;;;32.43;26.17;;;23.60;80.60;;;;;;5074713;28;20213;-79
2022/06/23 03:49:07;;;;;;;41.50;26.43;;;23.50;80.70;;;;;;5075241;28;20229;-79
2022/06/23 03:51:47;;;;;;;33.20;24.97;;;23.50;81.50;;;;;;5049211;28;20206;-79
2022/06/23 03:54:23;;;;;;;35.13;23.20;;;23.50;81.10;;;;;;5055794;28;20204;-79
2022/06/23 03:56:59;;;;;;;29.30;23.20;;;23.50;81.20;;;;;;5072639;28;20627;-79
2022/06/23 03:59:42;;;;;;;31.17;22.83;;;23.50;81.30;;;;;;5065262;28;20190;-79
2022/06/23 04:02:17;;;;;;;33.57;21.60;;;23.50;81.30;;;;;;5071739;28;20212;-79
2022/06/23 04:04:56;;;;;;;29.00;22.83;;;23.50;81.20;;;;;;5072267;28;20209;-79
2022/06/23 04:07:29;;;;;;;34.93;22.23;;;23.50;81.40;;;;;;5057064;28;20202;-79
2022/06/23 04:10:07;;;;;;;31.53;21.37;;;23.50;81.40;;;;;;5060323;28;20205;-80
2022/06/23 04:12:59;;;;;;;36.80;23.97;;;23.60;81.40;;;;;;5053720;28;20225;-79
2022/06/23 04:15:34;;;;;;;37.97;22.77;;;23.60;81.30;;;;;;5073629;28;20204;-80
2022/06/23 04:18:05;;;;;;;38.13;21.37;;;23.60;81.20;;;;;;5064746;28;20549;-79
2022/06/23 04:20:32;;;;;;;36.40;20.27;;;23.60;81.00;;;;;;5050946;28;20308;-79
2022/06/23 04:23:20;;;;;;;34.83;21.63;;;23.70;80.90;;;;;;5062592;28;20270;-79
2022/06/23 04:26:02;;;;;;;31.90;21.33;;;23.70;80.80;;;;;;5066241;28;20293;-80
2022/06/23 04:28:41;;;;;;;43.63;21.93;;;23.80;80.80;;;;;;5072184;28;20232;-79
2022/06/23 04:31:13;;;;;;;30.83;20.17;;;23.80;80.90;;;;;;5059769;28;20202;-79
2022/06/23 04:33:40;;;;;;;27.97;20.47;;;23.90;81.00;;;;;;5074956;28;20221;-79
2022/06/23 04:36:21;;;;;;;31.17;19.53;;;23.90;80.90;;;;;;5043442;28;20594;-80
2022/06/23 04:39:00;;;;;;;31.17;18.20;;;24.00;80.60;;;;;;5076683;28;20277;-80
2022/06/23 04:41:43;;;;;;;33.10;18.70;;;24.00;80.30;;;;;;5046058;28;20583;-79
2022/06/23 04:44:26;;;;;;;32.60;18.37;;;24.10;79.80;;;;;;5069019;28;20681;-80
2022/06/23 04:47:13;;;;;;;32.33;18.63;;;24.20;79.40;;;;;;5071298;28;20228;-80
2022/06/23 04:49:45;;;;;;;32.97;18.83;;;24.30;78.80;;;;;;5052916;28;20529;-80
2022/06/23 04:52:32;;;;;;;34.57;17.77;;;24.40;78.30;;;;;;5068036;28;20226;-80
2022/06/23 04:55:24;;;;;;;34.10;17.60;;;24.50;77.90;;;;;;5074034;28;20301;-79
2022/06/23 04:58:01;;;;;;;31.13;16.10;;;24.60;77.60;;;;;;5056556;28;20622;-79
2022/06/23 05:00:48;;;;;;;29.63;15.87;;;24.60;77.20;;;;;;5055013;28;20656;-79
2022/06/23 05:03:32;;;;;;;34.57;16.77;;;24.70;76.90;;;;;;5044963;28;20201;-80
2022/06/23 05:06:09;;;;;;;34.67;16.40;;;24.80;76.30;;;;;;5066742;28;20225;-79
2022/06/23 05:08:41;;;;;;;33.23;14.97;;;24.90;76.10;;;;;;5057827;28;20208;-80
2022/06/23 05:11:21;;;;;;;35.97;16.13;;;25.00;75.80;;;;;;5063739;28;20276;-80
2022/06/23 05:13:53;;;;;;;30.10;16.00;;;25.00;75.60;;;;;;5064064;28;20268;-79
2022/06/23 05:16:27;;;;;;;35.00;14.73;;;25.20;75.50;;;;;;5053879;28;20226;-79
2022/06/23 05:19:05;;;;;;;37.77;14.97;;;25.30;75.10;;;;;;5042019;28;20658;-79
2022/06/23 05:21:44;;;;;;;27.23;13.67;;;25.40;74.80;;;;;;5059264;28;20200;-79
2022/06/23 05:24:24;;;;;;;30.97;15.03;;;25.60;74.50;;;;;;5057279;28;20194;-79
2022/06/23 05:27:02;;;;;;;37.67;15.43;;;25.70;73.90;;;;;;5056659;28;20193;-80
2022/06/23 05:30:07;;;;;;;32.87;14.60;;;25.90;73.50;;;;;;5058019;28;20551;-79
2022/06/23 05:32:45;;;;;;;31.10;14.43;;;26.00;73.10;;;;;;5058806;28;20244;-79
2022/06/23 05:35:31;;;;;;;27.13;13.37;;;26.10;72.60;;;;;;5057290;28;20208;-79
2022/06/23 05:38:42;;;;;;;27.80;13.30;;;26.20;72.20;;;;;;5057913;28;20601;-79
2022/06/23 05:41:39;;;;;;;27.37;13.07;;;26.30;72.20;;;;;;5052595;28;20238;-79
2022/06/23 05:44:16;;;;;;;32.47;12.83;;;26.50;71.90;;;;;;5063043;28;20237;-80
2022/06/23 05:46:46;;;;;;;26.90;11.60;;;26.60;71.50;;;;;;5057127;28;20299;-79
2022/06/23 05:49:27;;;;;;;27.90;10.97;;;26.70;71.20;;;;;;5057422;28;20269;-79
2022/06/23 05:52:05;;;;;;;26.50;10.60;;;26.80;70.80;;;;;;5073546;28;20265;-79
2022/06/23 05:54:54;;;;;;;25.93;10.97;;;26.90;70.50;;;;;;5052894;28;20204;-79
2022/06/23 05:57:38;;;;;;;23.63;10.63;;;27.10;70.10;;;;;;5073715;28;20205;-80
2022/06/23 06:00:20;;;;;;;23.70;10.53;;;27.20;69.70;;;;;;5075205;28;20513;-80
2022/06/23 06:02:57;;;;;;;24.00;10.93;;;27.40;69.70;;;;;;5055482;28;20209;-79
2022/06/23 06:05:34;;;;;;;27.43;10.83;;;27.50;69.30;;;;;;5056672;28;20215;-80
2022/06/23 06:08:07;;;;;;;23.70;10.70;;;27.70;69.10;;;;;;5064357;28;20623;-79
2022/06/23 06:10:36;;;;;;;25.30;11.33;;;27.80;68.20;;;;;;5057661;28;20637;-80
2022/06/23 06:13:05;;;;;;;30.33;11.80;;;27.90;68.00;;;;;;5055667;28;20214;-80
2022/06/23 06:15:38;;;;;;;21.97;11.63;;;28.00;67.70;;;;;;5066527;28;20189;-79
2022/06/23 06:18:28;;;;;;;22.13;11.67;;;28.10;67.30;;;;;;5069600;28;20224;-80
2022/06/23 06:20:59;;;;;;;20.37;11.60;;;28.20;67.80;;;;;;5043825;28;20232;-79
2022/06/23 06:23:29;;;;;;;24.37;12.83;;;28.40;67.50;;;;;;5074881;28;20316;-79
2022/06/23 06:25:57;;;;;;;34.40;13.93;;;28.50;67.00;;;;;;5073607;28;20217;-80
2022/06/23 06:28:30;;;;;;;24.87;12.13;;;28.70;66.50;;;;;;5060795;28;20198;-80
2022/06/23 06:31:15;;;;;;;26.67;12.87;;;28.70;66.30;;;;;;5078168;28;20201;-79
2022/06/23 06:34:11;;;;;;;24.30;12.40;;;28.70;65.80;;;;;;5070016;28;20228;-80
2022/06/23 06:36:43;;;;;;;23.47;13.20;;;28.60;66.20;;;;;;5061767;28;20600;-80
2022/06/23 06:39:17;;;;;;;22.53;13.53;;;28.60;66.60;;;;;;5057925;28;20302;-80
2022/06/23 06:41:47;;;;;;;28.87;13.47;;;28.70;66.10;;;;;;5060568;28;20205;-79
2022/06/23 06:44:17;;;;;;;26.60;12.40;;;28.70;65.80;;;;;;5063695;28;20677;-80
2022/06/23 06:46:45;;;;;;;20.23;13.03;;;28.60;65.80;;;;;;5045375;28;20205;-80
2022/06/23 06:49:22;;;;;;;20.77;11.10;;;28.70;66.30;;;;;;5044893;28;20266;-79
2022/06/23 06:51:52;;;;;;;29.40;13.53;;;28.80;66.90;;;;;;5078724;28;20201;-80
2022/06/23 06:54:28;;;;;;;25.97;12.83;;;28.90;66.50;;;;;;5069931;28;20210;-79
2022/06/23 06:56:59;;;;;;;31.90;12.57;;;29.00;66.10;;;;;;5063488;28;20315;-79
2022/06/23 06:59:38;;;;;;;26.13;13.27;;;29.20;66.00;;;;;;5055576;28;20288;-79
2022/06/23 07:02:34;;;;;;;26.93;12.43;;;29.30;65.10;;;;;;5062627;28;20206;-80
2022/06/23 07:05:18;;;;;;;18.60;13.60;;;29.30;65.00;;;;;;5063141;28;20564;-80
2022/06/23 07:07:51;;;;;;;25.37;12.50;;;29.20;65.20;;;;;;5060449;28;20201;-80
2022/06/23 07:10:36;;;;;;;21.30;13.63;;;29.20;65.50;;;;;;5070049;28;20217;-80
2022/06/23 07:13:13;;;;;;;20.27;12.03;;;29.20;65.60;;;;;;5057711;28;20221;-81
2022/06/23 07:15:45;;;;;;;20.73;13.23;;;29.20;65.80;;;;;;5039698;28;20209;-80
2022/06/23 07:18:33;;;;;;;23.87;13.97;;;29.30;65.80;;;;;;5059777;28;20293;-80
2022/06/23 07:21:19;;;;;;;24.33;14.87;;;29.30;65.90;;;;;;5056974;28;20194;-79
2022/06/23 07:24:00;;;;;;;21.67;13.93;;;29.30;66.30;;;;;;5071221;28;20213;-80
2022/06/23 07:26:38;;;;;;;27.57;13.97;;;29.40;66.40;;;;;;5072349;28;20289;-80
2022/06/23 07:29:17;;;;;;;25.27;13.13;;;29.50;66.70;;;;;;5050768;28;20201;-80
2022/06/23 07:32:00;;;;;;;24.67;13.50;;;29.80;66.20;;;;;;5056408;28;20734;-81
2022/06/23 07:34:33;;;;;;;19.67;11.47;;;30.10;65.50;;;;;;5075680;28;20221;-80
2022/06/23 07:37:25;;;;;;;19.27;11.20;;;30.30;64.60;;;;;;5056605;28;20202;-80
2022/06/23 07:40:00;;;;;;;22.67;11.17;;;30.50;63.70;;;;;;5071654;28;20201;-80
2022/06/23 07:42:36;;;;;;;26.60;11.50;;;30.80;63.00;;;;;;5043603;28;20209;-81
2022/06/23 07:45:13;;;;;;;20.90;10.67;;;31.00;62.00;;;;;;5058748;28;20236;-80
2022/06/23 07:47:40;;;;;;;19.87;11.47;;;31.00;61.70;;;;;;5071677;28;20194;-80
2022/06/23 07:50:07;;;;;;;24.17;11.43;;;31.00;61.70;;;;;;5058038;28;20545;-80
2022/06/23 07:52:34;;;;;;;20.00;10.33;;;31.20;62.00;;;;;;5059771;28;20626;-80
2022/06/23 07:55:03;;;;;;;16.63;10.20;;;31.20;61.40;;;;;;5071118;28;20198;-80
2022/06/23 07:57:31;;;;;;;17.80;8.90;;;31.20;61.10;;;;;;5050983;28;20209;-80
2022/06/23 08:00:06;;;;;;;17.93;10.07;;;31.20;60.80;;;;;;5056161;28;20198;-80
2022/06/23 08:02:54;;;;;;;17.20;8.50;;;31.30;61.30;;;;;;5055225;28;20213;-80
2022/06/23 08:05:58;;;;;;;22.97;8.03;;;31.50;61.00;;;;;;5057362;28;20194;-80
2022/06/23 08:08:29;;;;;;;15.03;8.67;;;31.70;60.20;;;;;;5013613;28;20241;-80
2022/06/23 08:13:53;;;;;;;21.93;9.10;;;31.80;57.60;;;;;;5075243;28;20225;-80
2022/06/23 08:19:29;;;;;;;19.03;8.97;;;31.80;59.40;;;;;;5051704;28;20600;-80
2022/06/23 08:22:09;;;;;;;20.83;10.17;;;31.90;59.20;;;;;;5063976;28;20209;-81
2022/06/23 08:24:38;;;;;;;18.63;9.10;;;32.00;57.90;;;;;;5054491;28;20255;-79
2022/06/23 08:27:13;;;;;;;17.03;7.63;;;32.00;57.80;;;;;;5060384;28;20326;-80
2022/06/23 08:29:48;;;;;;;15.00;8.90;;;32.10;58.00;;;;;;5058635;28;20197;-80
2022/06/23 08:32:16;;;;;;;16.43;8.70;;;32.40;57.60;;;;;;5055406;28;20234;-80
2022/06/23 08:34:52;;;;;;;19.57;9.23;;;32.50;56.00;;;;;;5054825;28;20213;-80
2022/06/23 08:37:23;;;;;;;19.77;8.83;;;32.50;56.50;;;;;;5072752;28;20540;-80
2022/06/23 08:40:01;;;;;;;18.40;9.03;;;32.50;56.70;;;;;;5052737;28;20198;-80
2022/06/23 08:42:43;;;;;;;16.53;8.87;;;32.50;56.40;;;;;;5074783;28;20197;-80
2022/06/23 08:45:38;;;;;;;17.37;8.73;;;32.50;56.50;;;;;;5069071;28;20317;-80
2022/06/23 08:48:18;;;;;;;17.87;9.90;;;32.70;56.90;;;;;;5035056;28;20194;-80
2022/06/23 08:51:01;;;;;;;18.93;8.57;;;32.70;56.40;;;;;;5048206;28;20209;-80
2022/06/23 08:53:54;;;;;;;18.63;8.23;;;32.70;56.10;;;;;;5038059;28;20560;-80
2022/06/23 08:56:55;;;;;;;18.33;8.10;;;32.70;57.00;;;;;;5037739;28;20199;-80
2022/06/23 08:59:37;;;;;;;18.53;8.30;;;32.90;56.50;;;;;;5042543;28;20216;-80
2022/06/23 09:02:36;;;;;;;15.77;8.27;;;33.20;56.00;;;;;;5051428;28;20206;-80
2022/06/23 09:05:28;;;;;;;17.93;8.63;;;33.50;55.40;;;;;;5025047;28;20211;-81
2022/06/23 09:08:07;;;;;;;16.13;7.77;;;33.80;54.50;;;;;;5049805;28;20634;-80
2022/06/23 09:10:40;;;;;;;18.10;8.50;;;34.00;54.30;;;;;;5056929;28;20225;-80
2022/06/23 09:13:25;;;;;;;19.67;9.30;;;34.10;52.90;;;;;;5037257;28;20588;-80
2022/06/23 09:16:21;;;;;;;17.17;7.40;;;34.30;51.40;;;;;;5054282;28;20209;-81
2022/06/23 09:19:06;;;;;;;22.80;8.33;;;34.40;51.80;;;;;;5064977;28;20226;-80
2022/06/23 09:21:58;;;;;;;16.00;7.23;;;34.50;51.10;;;;;;5038579;28;20199;-80
2022/06/23 09:24:49;;;;;;;22.80;8.10;;;34.60;51.30;;;;;;5016690;28;20300;-80
2022/06/23 09:27:54;;;;;;;21.67;7.83;;;34.60;50.70;;;;;;5053028;28;20199;-80
2022/06/23 09:30:59;;;;;;;17.73;7.00;;;34.60;50.80;;;;;;5039267;28;20194;-80
2022/06/23 09:34:01;;;;;;;24.27;8.97;;;34.50;49.80;;;;;;5033351;28;20287;-80
2022/06/23 09:36:28;;;;;;;25.40;8.97;;;34.30;49.70;;;;;;5034283;28;20199;-80
2022/06/23 09:39:37;;;;;;;19.97;8.20;;;34.30;50.20;;;;;;5037873;28;20255;-80
2022/06/23 09:42:16;;;;;;;22.27;7.13;;;34.10;50.30;;;;;;5022312;28;20662;-82
2022/06/23 09:45:18;;;;;;;22.50;8.40;;;33.90;51.10;;;;;;5066953;28;20324;-81
2022/06/23 09:48:08;;;;;;;19.60;7.93;;;33.80;51.50;;;;;;5053170;28;20225;-82
2022/06/23 09:50:48;;;;;;;16.73;8.17;;;33.60;51.80;;;;;;5053335;28;20210;-81
2022/06/23 09:53:19;;;;;;;26.53;9.73;;;33.50;52.10;;;;;;5064746;28;20732;-82
2022/06/23 09:56:06;;;;;;;19.03;8.20;;;33.60;53.20;;;;;;5066393;28;20194;-82
2022/06/23 09:59:20;;;;;;;29.90;8.80;;;33.70;51.80;;;;;;5068816;28;20252;-82
2022/06/23 10:02:07;;;;;;;20.23;7.43;;;33.80;51.60;;;;;;5006607;28;20208;-81
2022/06/23 10:04:56;;;;;;;21.83;8.33;;;34.00;50.50;;;;;;5065829;28;20582;-81
2022/06/23 10:08:18;;;;;;;27.10;8.77;;;34.10;49.80;;;;;;5063367;28;20213;-82
2022/06/23 10:11:25;;;;;;;24.30;8.03;;;34.10;49.80;;;;;;4990326;28;20207;-82
2022/06/23 10:14:21;;;;;;;22.57;8.43;;;34.20;50.20;;;;;;5008801;28;20242;-82
2022/06/23 10:17:19;;;;;;;32.30;8.27;;;34.30;50.20;;;;;;5065000;28;20198;-83
2022/06/23 10:19:53;;;;;;;26.63;7.70;;;34.40;49.80;;;;;;5081607;28;20543;-82
2022/06/23 10:22:32;;;;;;;65.97;10.57;;;34.70;49.50;;;;;;5061934;28;20208;-81
2022/06/23 10:25:30;;;;;;;18.60;7.00;;;34.90;49.00;;;;;;5062345;28;20237;-82
2022/06/23 10:28:11;;;;;;;19.77;7.03;;;35.10;47.60;;;;;;5057091;28;20205;-81
2022/06/23 10:30:50;;;;;;;22.03;7.67;;;35.20;47.80;;;;;;5067739;28;20233;-81
2022/06/23 10:34:00;;;;;;;936.67;139.77;;;35.30;48.00;;;;;;5056887;28;20229;-81
2022/06/23 10:36:50;;;;;;;18.07;7.53;;;35.50;47.20;;;;;;5044971;28;20292;-81
2022/06/23 10:39:39;;;;;;;20.93;6.97;;;35.70;47.30;;;;;;5065845;28;20681;-82
2022/06/23 10:43:01;;;;;;;27.20;7.67;;;35.80;46.40;;;;;;5048189;28;20234;-82
2022/06/23 10:45:50;;;;;;;21.63;7.63;;;35.90;45.20;;;;;;5054336;28;20233;-81
2022/06/23 10:48:41;;;;;;;23.13;6.87;;;36.00;45.50;;;;;;5082797;28;20216;-81
2022/06/23 10:51:37;;;;;;;30.67;7.77;;;36.00;43.40;;;;;;5086490;28;20261;-81
2022/06/23 10:54:48;;;;;;;22.63;7.90;;;36.00;43.80;;;;;;5080786;28;20218;-82
2022/06/23 10:57:42;;;;;;;25.23;7.80;;;35.90;43.80;;;;;;5004035;28;20211;-82
2022/06/23 11:00:30;;;;;;;17.93;6.87;;;36.00;44.90;;;;;;5006769;28;20699;-83
2022/06/23 11:03:28;;;;;;;21.40;7.93;;;36.10;45.20;;;;;;5061285;28;20232;-82
2022/06/23 11:06:20;;;;;;;21.05;8.13;;;36.30;45.20;;;;;;5064855;28;20197;-82
2022/06/23 11:09:24;;;;;;;27.73;7.77;;;36.60;44.90;;;;;;5077121;28;20198;-81
2022/06/23 11:12:15;;;;;;;28.57;7.37;;;36.70;43.60;;;;;;5062077;28;20646;-82
2022/06/23 11:15:07;;;;;;;20.83;7.00;;;36.50;43.90;;;;;;5061258;28;20248;-81
2022/06/23 11:18:10;;;;;;;27.47;7.87;;;36.30;43.80;;;;;;5078872;28;20255;-80
2022/06/23 11:20:37;;;;;;;21.80;6.67;;;36.10;43.50;;;;;;4993925;28;20231;-80
2022/06/23 11:23:15;;;;;;;23.63;7.73;;;36.00;42.70;;;;;;5079162;28;20209;-81
2022/06/23 11:25:53;;;;;;;20.90;7.33;;;36.00;43.50;;;;;;5066371;28;20204;-82
2022/06/23 11:28:34;;;;;;;23.63;7.60;;;36.00;43.80;;;;;;5079615;28;20651;-81
2022/06/23 11:31:36;;;;;;;24.00;7.37;;;36.00;43.20;;;;;;5062124;28;20211;-82
2022/06/23 11:34:41;;;;;;;20.65;6.90;;;36.00;44.00;;;;;;5075336;28;20232;-82
2022/06/23 11:37:27;;;;;;;22.13;7.17;;;36.00;44.30;;;;;;5058030;28;20230;-82
2022/06/23 11:40:27;;;;;;;22.50;7.27;;;36.00;44.40;;;;;;5052668;28;20214;-82
2022/06/23 11:43:31;;;;;;;22.83;7.93;;;36.00;43.40;;;;;;5049427;28;20228;-81
2022/06/23 11:46:32;;;;;;;21.03;7.93;;;35.80;44.00;;;;;;5067647;28;20229;-82
2022/06/23 11:49:08;;;;;;;24.83;7.57;;;35.60;45.10;;;;;;5078375;28;20204;-82
2022/06/23 11:52:24;;;;;;;27.33;7.60;;;35.40;45.40;;;;;;5046629;28;20206;-81
2022/06/23 11:54:52;;;;;;;24.13;7.80;;;35.20;46.40;;;;;;5054609;28;20214;-82
2022/06/23 11:57:25;;;;;;;27.03;8.07;;;35.10;46.50;;;;;;5076730;28;20255;-82
2022/06/23 12:00:11;;;;;;;22.20;8.13;;;34.90;45.90;;;;;;5061031;28;20216;-81
2022/06/23 12:03:32;;;;;;;26.47;7.43;;;34.80;46.90;;;;;;5059395;28;20308;-83
2022/06/23 12:06:44;;;;;;;25.27;8.50;;;34.80;46.30;;;;;;5069067;28;20205;-82
2022/06/23 12:09:48;;;;;;;24.00;7.13;;;34.90;46.50;;;;;;5066750;28;20200;-82
2022/06/23 12:12:16;;;;;;;27.93;8.00;;;34.90;46.70;;;;;;5055780;28;20213;-81
2022/06/23 12:14:44;;;;;;;35.70;8.87;;;34.90;46.10;;;;;;5066321;28;20220;-80
2022/06/23 12:17:19;;;;;;;24.63;7.37;;;34.90;46.60;;;;;;5062671;28;20649;-81
2022/06/23 12:19:51;;;;;;;24.27;6.67;;;34.90;46.80;;;;;;5062338;28;20231;-81
2022/06/23 12:22:35;;;;;;;24.43;6.67;;;34.90;47.00;;;;;;5064478;28;20536;-82
2022/06/23 12:25:45;;;;;;;28.70;8.40;;;34.90;46.90;;;;;;5073978;28;20653;-81
2022/06/23 12:28:46;;;;;;;23.13;7.43;;;34.90;46.50;;;;;;5063462;28;20225;-81
2022/06/23 12:31:39;;;;;;;28.30;7.60;;;34.90;46.50;;;;;;5070712;28;20198;-81
2022/06/23 12:35:02;;;;;;;23.27;7.87;;;34.80;46.10;;;;;;5067298;28;20221;-81
2022/06/23 12:37:41;;;;;;;23.50;7.07;;;34.70;46.70;;;;;;5000013;28;20246;-81
2022/06/23 12:40:26;;;;;;;22.97;7.87;;;34.60;47.80;;;;;;5012278;28;20224;-82
2022/06/23 12:43:06;;;;;;;24.87;7.07;;;34.40;49.30;;;;;;5003694;28;20295;-81
2022/06/23 12:45:52;;;;;;;25.37;7.97;;;34.20;48.60;;;;;;5040397;28;20565;-82
2022/06/23 12:48:40;;;;;;;27.17;7.73;;;34.10;48.30;;;;;;5073848;28;20533;-82
2022/06/23 12:51:30;;;;;;;26.00;7.37;;;34.00;48.30;;;;;;5039075;28;20213;-82
2022/06/23 12:54:14;;;;;;;23.13;8.10;;;34.00;48.90;;;;;;5064321;28;20213;-81
2022/06/23 12:57:07;;;;;;;20.90;7.07;;;33.90;48.80;;;;;;5061545;28;20301;-81
2022/06/23 12:59:41;;;;;;;22.73;7.33;;;33.80;48.30;;;;;;5060620;28;20225;-81
2022/06/23 13:02:19;;;;;;;24.73;7.40;;;33.70;49.80;;;;;;5081102;28;20212;-81
2022/06/23 13:04:55;;;;;;;28.03;7.47;;;33.60;50.10;;;;;;5061863;28;20201;-81
2022/06/23 13:07:40;;;;;;;16.57;7.03;;;33.60;50.30;;;;;;5063325;28;20301;-81
2022/06/23 13:10:21;;;;;;;25.67;7.30;;;33.50;50.20;;;;;;5051159;28;20205;-83
2022/06/23 13:13:21;;;;;;;29.93;8.40;;;33.50;50.80;;;;;;5052658;28;20304;-81
2022/06/23 13:16:03;;;;;;;23.17;6.80;;;33.40;51.10;;;;;;5077437;28;20324;-82
2022/06/23 13:18:53;;;;;;;23.97;7.83;;;33.40;51.50;;;;;;5058489;28;20205;-83
2022/06/23 13:21:29;;;;;;;29.63;7.30;;;33.40;51.20;;;;;;5068666;28;20209;-82
2022/06/23 13:24:08;;;;;;;26.13;7.97;;;33.50;50.70;;;;;;5060874;28;20248;-82
2022/06/23 13:27:03;;;;;;;23.93;7.17;;;33.60;50.70;;;;;;5063077;28;20201;-81
2022/06/23 13:29:41;;;;;;;22.60;7.33;;;33.70;50.10;;;;;;5072148;28;20282;-81
2022/06/23 13:32:18;;;;;;;22.80;7.90;;;33.70;50.20;;;;;;5069745;28;20202;-81
2022/06/23 13:35:00;;;;;;;27.67;7.87;;;33.60;49.10;;;;;;5052981;28;20292;-82
2022/06/23 13:37:50;;;;;;;35.90;8.17;;;33.60;49.60;;;;;;5055685;28;20729;-81
2022/06/23 13:40:37;;;;;;;25.67;8.23;;;33.50;50.00;;;;;;5067279;28;20265;-81
2022/06/23 13:43:34;;;;;;;26.73;8.07;;;33.50;49.60;;;;;;5044597;28;20554;-81
2022/06/23 13:46:14;;;;;;;24.13;7.50;;;33.40;50.70;;;;;;5040096;28;20282;-81
2022/06/23 13:48:48;;;;;;;22.17;7.80;;;33.40;50.20;;;;;;5038759;28;20202;-81
2022/06/23 13:51:26;;;;;;;32.93;8.37;;;33.40;50.20;;;;;;5050814;28;20285;-82
2022/06/23 13:54:09;;;;;;;30.80;8.67;;;33.30;50.00;;;;;;5058886;28;20214;-82
2022/06/23 13:57:05;;;;;;;22.70;7.60;;;33.30;51.50;;;;;;5058322;28;20302;-82
2022/06/23 13:59:44;;;;;;;23.37;7.33;;;33.20;51.60;;;;;;5058084;28;20198;-82
2022/06/23 14:02:44;;;;;;;24.60;7.73;;;33.20;51.70;;;;;;5054278;28;20198;-82